Neptune Antlia — S6BE — position and weather

sailwx.info

Track history (hours):
 
Tides and Currents Weather Stations Pressure Air Temp Water Temp Dewpoint Dewpoint Depression Visibility Wind Speed Wind Dir Waves Ship Positions

Neptune Antlia

Last reported at 2014-Oct-01 23:21 UTC. Time now 2014-Oct-02 00:22 UTC.
Position S 23°58' W 046°18'.

Type: Cargo ship. MMSI: 563737000.

Date/timePositionNaut miles runAvg speedWind from/ knotsBaromVisibWave heightAir tempDewpointWater temp
2014-Oct-01 23:21S 23°58' W 046°18'0 0.0
2014-Oct-01 22:33S 23°58' W 046°18'0 0.0
2014-Oct-01 21:30S 23°58' W 046°18'0 0.0
2014-Oct-01 20:33S 23°58' W 046°18'0 0.0
2014-Oct-01 19:33S 23°58' W 046°18'0 0.0
2014-Oct-01 18:30S 23°58' W 046°18'0 0.0
2014-Oct-01 17:30S 23°58' W 046°18'0 0.0
2014-Oct-01 16:33S 23°58' W 046°18'0 0.0
2014-Oct-01 15:33S 23°58' W 046°18'0 0.0
2014-Oct-01 14:33S 23°58' W 046°18'0 0.0
2014-Oct-01 13:33S 23°58' W 046°18'0 0.0
2014-Oct-01 12:30S 23°58' W 046°18'0 0.0
2014-Oct-01 11:33S 23°58' W 046°18'0 0.0
2014-Oct-01 10:30S 23°58' W 046°18'0 0.0
2014-Oct-01 09:30S 23°58' W 046°18'0 0.0
2014-Oct-01 08:30S 23°58' W 046°18'0 0.0
2014-Oct-01 07:33S 23°58' W 046°18'0 0.0
2014-Oct-01 06:30S 23°58' W 046°18'0 0.0
2014-Oct-01 05:30S 23°58' W 046°18'0 0.0
2014-Oct-01 04:30S 23°58' W 046°18'0 0.0
2014-Oct-01 03:33S 23°58' W 046°18'0 0.0
2014-Oct-01 02:23S 23°58' W 046°18'0 0.0
2014-Oct-01 01:29S 23°58' W 046°18'0 0.0
2014-Oct-01 00:32S 23°58' W 046°18'0 0.0
2014-Sep-30 23:32S 23°58' W 046°18'0 0.0
2014-Sep-30 22:32S 23°58' W 046°18'0 0.0
2014-Sep-30 21:32S 23°58' W 046°18'0 0.0
2014-Sep-30 20:32S 23°58' W 046°18'0 0.0
2014-Sep-30 19:29S 23°58' W 046°18'0 0.0
2014-Sep-30 18:32S 23°58' W 046°18'1 1.0
2014-Sep-30 17:33S 23°59' W 046°17'5 4.6
2014-Sep-30 16:31S 24°03' W 046°19'7 7.4
2014-Sep-30 15:33S 24°05' W 046°12'1 0.8
2014-Sep-30 14:32S 24°06' W 046°11'0 0.0
2014-Sep-30 13:32S 24°06' W 046°11'0 0.0
2014-Sep-30 12:29S 24°06' W 046°11'0 0.0
2014-Sep-30 11:29S 24°06' W 046°11'0 0.0
2014-Sep-30 10:29S 24°06' W 046°11'0 0.1
2014-Sep-30 09:29S 24°06' W 046°11'0 0.1
2014-Sep-30 08:29S 24°06' W 046°11'0 0.2
2014-Sep-30 07:23S 24°06' W 046°11'0 0.0
2014-Sep-30 06:23S 24°06' W 046°11'0 0.0
2014-Sep-30 05:32S 24°06' W 046°11'0 0.1
2014-Sep-30 04:32S 24°06' W 046°11'0 0.0
2014-Sep-30 03:32S 24°06' W 046°11'0 0.0
2014-Sep-30 02:29S 24°06' W 046°11'0 0.0
2014-Sep-30 01:29S 24°06' W 046°11'0 0.0
2014-Sep-30 00:23S 24°06' W 046°11'0 0.1
2014-Sep-29 23:16S 24°06' W 046°11'0 0.0
2014-Sep-29 22:16S 24°06' W 046°11'0 0.0
2014-Sep-29 20:10S 24°06' W 046°11'0 0.0
2014-Sep-29 19:22S 24°06' W 046°11'0 0.0
2014-Sep-29 18:25S 24°06' W 046°11'0 0.0
2014-Sep-29 17:28S 24°06' W 046°11'0 0.0
2014-Sep-29 16:31S 24°06' W 046°11'0 0.0
2014-Sep-29 15:22S 24°06' W 046°11'0 0.0
2014-Sep-29 14:31S 24°06' W 046°11'0 0.1
2014-Sep-29 13:16S 24°06' W 046°11'0 0.0
2014-Sep-29 12:31S 24°06' W 046°11'0 0.0
2014-Sep-29 11:28S 24°06' W 046°11'0 0.0
2014-Sep-29 10:31S 24°06' W 046°11'0 0.0
2014-Sep-29 09:28S 24°06' W 046°11'0 0.0
2014-Sep-29 08:28S 24°06' W 046°11'0 0.0
2014-Sep-29 07:31S 24°06' W 046°11'0 0.0
2014-Sep-29 06:28S 24°06' W 046°11'0 0.0
2014-Sep-29 05:31S 24°06' W 046°11'0 0.0
2014-Sep-29 04:22S 24°06' W 046°11'0 0.0
2014-Sep-29 03:28S 24°06' W 046°11'0 0.1
2014-Sep-29 02:22S 24°06' W 046°11'0 0.0
2014-Sep-29 01:28S 24°06' W 046°11'0 0.0
2014-Sep-29 00:28S 24°06' W 046°11'0 0.0
2014-Sep-28 23:28S 24°06' W 046°11'0 0.1
2014-Sep-28 22:31S 24°06' W 046°11'0 0.0
2014-Sep-28 21:28S 24°06' W 046°11'0 0.0
2014-Sep-28 20:22S 24°06' W 046°11'0 0.1
2014-Sep-28 19:31S 24°06' W 046°11'0 0.0
2014-Sep-28 18:31S 24°06' W 046°11'0 0.0
2014-Sep-28 17:31S 24°06' W 046°11'0 0.0
2014-Sep-28 16:28S 24°06' W 046°11'0 0.0
2014-Sep-28 15:31S 24°06' W 046°11'0 0.0
2014-Sep-28 14:31S 24°06' W 046°11'0 0.0
2014-Sep-28 13:28S 24°06' W 046°11'0 0.0
2014-Sep-28 12:34S 24°06' W 046°11'0 0.0
2014-Sep-28 11:33S 24°06' W 046°11'0 0.0
2014-Sep-28 10:33S 24°06' W 046°11'0 0.0
2014-Sep-28 09:12S 24°06' W 046°11'0 0.0
2014-Sep-28 08:33S 24°06' W 046°11'0 0.0
2014-Sep-28 07:33S 24°06' W 046°11'0 0.0
2014-Sep-28 06:33S 24°06' W 046°11'0 0.0
2014-Sep-28 05:33S 24°06' W 046°11'0 0.0
2014-Sep-28 04:33S 24°06' W 046°11'0 0.0
2014-Sep-28 03:33S 24°06' W 046°11'0 0.0
2014-Sep-28 02:33S 24°06' W 046°11'0 0.0
2014-Sep-28 00:33S 24°06' W 046°11'0 0.0
2014-Sep-27 23:27S 24°06' W 046°11'0 0.0
2014-Sep-27 22:33S 24°06' W 046°11'0 0.0
2014-Sep-27 21:33S 24°06' W 046°11'0 0.0
2014-Sep-27 20:33S 24°06' W 046°11'0 0.0
2014-Sep-27 19:21S 24°06' W 046°11'0 0.0
2014-Sep-27 18:33S 24°06' W 046°11'0 0.0
2014-Sep-27 17:33S 24°06' W 046°11'0 0.0
2014-Sep-27 16:09S 24°06' W 046°11'0 0.0
2014-Sep-27 15:33S 24°06' W 046°11'0 0.0
2014-Sep-27 14:33S 24°06' W 046°11'0 0.0
2014-Sep-27 13:15S 24°06' W 046°11'0 0.0
2014-Sep-27 12:33S 24°06' W 046°11'0 0.0
2014-Sep-27 11:33S 24°06' W 046°11'0 0.0
2014-Sep-27 10:33S 24°06' W 046°11'0 0.0
2014-Sep-27 09:30S 24°06' W 046°11'0 0.0
2014-Sep-27 08:33S 24°06' W 046°11'0 0.0
2014-Sep-27 07:33S 24°06' W 046°11'0 0.0
2014-Sep-27 06:33S 24°06' W 046°11'0 0.0
2014-Sep-27 05:33S 24°06' W 046°11'0 0.0
2014-Sep-27 04:33S 24°06' W 046°11'0 0.0
2014-Sep-27 03:30S 24°06' W 046°11'0 0.1
2014-Sep-27 02:27S 24°06' W 046°11'0 0.2
2014-Sep-27 01:30S 24°06' W 046°11'0 0.0
2014-Sep-27 00:33S 24°06' W 046°11'0 0.0
2014-Sep-26 23:29S 24°06' W 046°11'0 0.0
2014-Sep-26 22:29S 24°06' W 046°11'0 0.1
2014-Sep-26 21:29S 24°06' W 046°11'0 0.0
2014-Sep-26 14:32S 24°06' W 046°11'0 0.1
2014-Sep-26 13:32S 24°06' W 046°11'0 0.0
2014-Sep-26 12:32S 24°06' W 046°11'0 0.0
2014-Sep-26 11:32S 24°06' W 046°11'0 0.0
2014-Sep-26 10:32S 24°06' W 046°11'0 0.0
2014-Sep-26 09:32S 24°06' W 046°11'0 0.1
2014-Sep-26 08:26S 24°06' W 046°11'0 0.0
2014-Sep-26 07:32S 24°06' W 046°11'0 0.2
2014-Sep-26 06:32S 24°06' W 046°11'0 0.0
2014-Sep-26 05:26S 24°06' W 046°11'0 0.0
2014-Sep-26 04:29S 24°06' W 046°11'0 0.0
2014-Sep-26 03:32S 24°06' W 046°11'0 0.0
2014-Sep-26 02:32S 24°06' W 046°11'0 0.0
2014-Sep-26 01:32S 24°06' W 046°11'0 0.0
2014-Sep-26 00:26S 24°06' W 046°11'0 0.0
2014-Sep-25 23:32S 24°06' W 046°11'0 0.0
2014-Sep-25 21:32S 24°06' W 046°11'0 0.0
2014-Sep-25 20:20S 24°06' W 046°11'0 0.0
2014-Sep-25 19:32S 24°06' W 046°11'0 0.0
2014-Sep-25 18:29S 24°06' W 046°11'0 0.0
2014-Sep-25 17:26S 24°06' W 046°11'0 0.0
2014-Sep-25 16:32S 24°06' W 046°11'0 0.0
2014-Sep-25 15:11S 24°06' W 046°11'0 0.2
2014-Sep-25 14:32S 24°06' W 046°11'0 0.1
2014-Sep-25 11:25S 24°06' W 046°11'0 0.2
2014-Sep-25 10:28S 24°06' W 046°11'0 0.1
2014-Sep-25 09:28S 24°06' W 046°11'0 0.0
2014-Sep-25 08:25S 24°06' W 046°11'0 0.1
2014-Sep-25 07:07S 24°06' W 046°11'0 0.0
2014-Sep-25 05:13S 24°06' W 046°11'0 0.0
2014-Sep-25 02:25S 24°06' W 046°11'0 0.0
2014-Sep-25 01:31S 24°06' W 046°11'0 0.1
2014-Sep-25 00:25S 24°06' W 046°11'  
Track history (hours):
 
Tides and Currents Weather Stations Pressure Air Temp Water Temp Dewpoint Dewpoint Depression Visibility Wind Speed Wind Dir Waves Ship Positions

Neptune Antlia

Last reported at 2014-Oct-01 23:21 UTC. Time now 2014-Oct-02 00:22 UTC.
Position S 23°58' W 046°18'.

Type: Cargo ship. MMSI: 563737000.

Date/timePositionNaut miles runAvg speedWind from/ knotsBaromVisibWave heightAir tempDewpointWater temp
2014-Oct-01 23:21S 23°58' W 046°18'0 0.0
2014-Oct-01 22:33S 23°58' W 046°18'0 0.0
2014-Oct-01 21:30S 23°58' W 046°18'0 0.0
2014-Oct-01 20:33S 23°58' W 046°18'0 0.0
2014-Oct-01 19:33S 23°58' W 046°18'0 0.0
2014-Oct-01 18:30S 23°58' W 046°18'0 0.0
2014-Oct-01 17:30S 23°58' W 046°18'0 0.0
2014-Oct-01 16:33S 23°58' W 046°18'0 0.0
2014-Oct-01 15:33S 23°58' W 046°18'0 0.0
2014-Oct-01 14:33S 23°58' W 046°18'0 0.0
2014-Oct-01 13:33S 23°58' W 046°18'0 0.0
2014-Oct-01 12:30S 23°58' W 046°18'0 0.0
2014-Oct-01 11:33S 23°58' W 046°18'0 0.0
2014-Oct-01 10:30S 23°58' W 046°18'0 0.0
2014-Oct-01 09:30S 23°58' W 046°18'0 0.0
2014-Oct-01 08:30S 23°58' W 046°18'0 0.0
2014-Oct-01 07:33S 23°58' W 046°18'0 0.0
2014-Oct-01 06:30S 23°58' W 046°18'0 0.0
2014-Oct-01 05:30S 23°58' W 046°18'0 0.0
2014-Oct-01 04:30S 23°58' W 046°18'0 0.0
2014-Oct-01 03:33S 23°58' W 046°18'0 0.0
2014-Oct-01 02:23S 23°58' W 046°18'0 0.0
2014-Oct-01 01:29S 23°58' W 046°18'0 0.0
2014-Oct-01 00:32S 23°58' W 046°18'0 0.0
2014-Sep-30 23:32S 23°58' W 046°18'0 0.0
2014-Sep-30 22:32S 23°58' W 046°18'0 0.0
2014-Sep-30 21:32S 23°58' W 046°18'0 0.0
2014-Sep-30 20:32S 23°58' W 046°18'0 0.0
2014-Sep-30 19:29S 23°58' W 046°18'0 0.0
2014-Sep-30 18:32S 23°58' W 046°18'1 1.0
2014-Sep-30 17:33S 23°59' W 046°17'5 4.6
2014-Sep-30 16:31S 24°03' W 046°19'7 7.4
2014-Sep-30 15:33S 24°05' W 046°12'1 0.8
2014-Sep-30 14:32S 24°06' W 046°11'0 0.0
2014-Sep-30 13:32S 24°06' W 046°11'0 0.0
2014-Sep-30 12:29S 24°06' W 046°11'0 0.0
2014-Sep-30 11:29S 24°06' W 046°11'0 0.0
2014-Sep-30 10:29S 24°06' W 046°11'0 0.1
2014-Sep-30 09:29S 24°06' W 046°11'0 0.1
2014-Sep-30 08:29S 24°06' W 046°11'0 0.2
2014-Sep-30 07:23S 24°06' W 046°11'0 0.0
2014-Sep-30 06:23S 24°06' W 046°11'0 0.0
2014-Sep-30 05:32S 24°06' W 046°11'0 0.1
2014-Sep-30 04:32S 24°06' W 046°11'0 0.0
2014-Sep-30 03:32S 24°06' W 046°11'0 0.0
2014-Sep-30 02:29S 24°06' W 046°11'0 0.0
2014-Sep-30 01:29S 24°06' W 046°11'0 0.0
2014-Sep-30 00:23S 24°06' W 046°11'0 0.1
2014-Sep-29 23:16S 24°06' W 046°11'0 0.0
2014-Sep-29 22:16S 24°06' W 046°11'0 0.0
2014-Sep-29 20:10S 24°06' W 046°11'0 0.0
2014-Sep-29 19:22S 24°06' W 046°11'0 0.0
2014-Sep-29 18:25S 24°06' W 046°11'0 0.0
2014-Sep-29 17:28S 24°06' W 046°11'0 0.0
2014-Sep-29 16:31S 24°06' W 046°11'0 0.0
2014-Sep-29 15:22S 24°06' W 046°11'0 0.0
2014-Sep-29 14:31S 24°06' W 046°11'0 0.1
2014-Sep-29 13:16S 24°06' W 046°11'0 0.0
2014-Sep-29 12:31S 24°06' W 046°11'0 0.0
2014-Sep-29 11:28S 24°06' W 046°11'0 0.0
2014-Sep-29 10:31S 24°06' W 046°11'0 0.0
2014-Sep-29 09:28S 24°06' W 046°11'0 0.0
2014-Sep-29 08:28S 24°06' W 046°11'0 0.0
2014-Sep-29 07:31S 24°06' W 046°11'0 0.0
2014-Sep-29 06:28S 24°06' W 046°11'0 0.0
2014-Sep-29 05:31S 24°06' W 046°11'0 0.0
2014-Sep-29 04:22S 24°06' W 046°11'0 0.0
2014-Sep-29 03:28S 24°06' W 046°11'0 0.1
2014-Sep-29 02:22S 24°06' W 046°11'0 0.0
2014-Sep-29 01:28S 24°06' W 046°11'0 0.0
2014-Sep-29 00:28S 24°06' W 046°11'0 0.0
2014-Sep-28 23:28S 24°06' W 046°11'0 0.1
2014-Sep-28 22:31S 24°06' W 046°11'0 0.0
2014-Sep-28 21:28S 24°06' W 046°11'0 0.0
2014-Sep-28 20:22S 24°06' W 046°11'0 0.1
2014-Sep-28 19:31S 24°06' W 046°11'0 0.0
2014-Sep-28 18:31S 24°06' W 046°11'0 0.0
2014-Sep-28 17:31S 24°06' W 046°11'0 0.0
2014-Sep-28 16:28S 24°06' W 046°11'0 0.0
2014-Sep-28 15:31S 24°06' W 046°11'0 0.0
2014-Sep-28 14:31S 24°06' W 046°11'0 0.0
2014-Sep-28 13:28S 24°06' W 046°11'0 0.0
2014-Sep-28 12:34S 24°06' W 046°11'0 0.0
2014-Sep-28 11:33S 24°06' W 046°11'0 0.0
2014-Sep-28 10:33S 24°06' W 046°11'0 0.0
2014-Sep-28 09:12S 24°06' W 046°11'0 0.0
2014-Sep-28 08:33S 24°06' W 046°11'0 0.0
2014-Sep-28 07:33S 24°06' W 046°11'0 0.0
2014-Sep-28 06:33S 24°06' W 046°11'0 0.0
2014-Sep-28 05:33S 24°06' W 046°11'0 0.0
2014-Sep-28 04:33S 24°06' W 046°11'0 0.0
2014-Sep-28 03:33S 24°06' W 046°11'0 0.0
2014-Sep-28 02:33S 24°06' W 046°11'0 0.0
2014-Sep-28 00:33S 24°06' W 046°11'0 0.0
2014-Sep-27 23:27S 24°06' W 046°11'0 0.0
2014-Sep-27 22:33S 24°06' W 046°11'0 0.0
2014-Sep-27 21:33S 24°06' W 046°11'0 0.0
2014-Sep-27 20:33S 24°06' W 046°11'0 0.0
2014-Sep-27 19:21S 24°06' W 046°11'0 0.0
2014-Sep-27 18:33S 24°06' W 046°11'0 0.0
2014-Sep-27 17:33S 24°06' W 046°11'0 0.0
2014-Sep-27 16:09S 24°06' W 046°11'0 0.0
2014-Sep-27 15:33S 24°06' W 046°11'0 0.0
2014-Sep-27 14:33S 24°06' W 046°11'0 0.0
2014-Sep-27 13:15S 24°06' W 046°11'0 0.0
2014-Sep-27 12:33S 24°06' W 046°11'0 0.0
2014-Sep-27 11:33S 24°06' W 046°11'0 0.0
2014-Sep-27 10:33S 24°06' W 046°11'0 0.0
2014-Sep-27 09:30S 24°06' W 046°11'0 0.0
2014-Sep-27 08:33S 24°06' W 046°11'0 0.0
2014-Sep-27 07:33S 24°06' W 046°11'0 0.0
2014-Sep-27 06:33S 24°06' W 046°11'0 0.0
2014-Sep-27 05:33S 24°06' W 046°11'0 0.0
2014-Sep-27 04:33S 24°06' W 046°11'0 0.0
2014-Sep-27 03:30S 24°06' W 046°11'0 0.1
2014-Sep-27 02:27S 24°06' W 046°11'0 0.2
2014-Sep-27 01:30S 24°06' W 046°11'0 0.0
2014-Sep-27 00:33S 24°06' W 046°11'0 0.0
2014-Sep-26 23:29S 24°06' W 046°11'0 0.0
2014-Sep-26 22:29S 24°06' W 046°11'0 0.1
2014-Sep-26 21:29S 24°06' W 046°11'0 0.0
2014-Sep-26 14:32S 24°06' W 046°11'0 0.1
2014-Sep-26 13:32S 24°06' W 046°11'0 0.0
2014-Sep-26 12:32S 24°06' W 046°11'0 0.0
2014-Sep-26 11:32S 24°06' W 046°11'0 0.0
2014-Sep-26 10:32S 24°06' W 046°11'0 0.0
2014-Sep-26 09:32S 24°06' W 046°11'0 0.1
2014-Sep-26 08:26S 24°06' W 046°11'0 0.0
2014-Sep-26 07:32S 24°06' W 046°11'0 0.2
2014-Sep-26 06:32S 24°06' W 046°11'0 0.0
2014-Sep-26 05:26S 24°06' W 046°11'0 0.0
2014-Sep-26 04:29S 24°06' W 046°11'0 0.0
2014-Sep-26 03:32S 24°06' W 046°11'0 0.0
2014-Sep-26 02:32S 24°06' W 046°11'0 0.0
2014-Sep-26 01:32S 24°06' W 046°11'0 0.0
2014-Sep-26 00:26S 24°06' W 046°11'0 0.0
2014-Sep-25 23:32S 24°06' W 046°11'0 0.0
2014-Sep-25 21:32S 24°06' W 046°11'0 0.0
2014-Sep-25 20:20S 24°06' W 046°11'0 0.0
2014-Sep-25 19:32S 24°06' W 046°11'0 0.0
2014-Sep-25 18:29S 24°06' W 046°11'0 0.0
2014-Sep-25 17:26S 24°06' W 046°11'0 0.0
2014-Sep-25 16:32S 24°06' W 046°11'0 0.0
2014-Sep-25 15:11S 24°06' W 046°11'0 0.2
2014-Sep-25 14:32S 24°06' W 046°11'0 0.1
2014-Sep-25 11:25S 24°06' W 046°11'0 0.2
2014-Sep-25 10:28S 24°06' W 046°11'0 0.1
2014-Sep-25 09:28S 24°06' W 046°11'0 0.0
2014-Sep-25 08:25S 24°06' W 046°11'0 0.1
2014-Sep-25 07:07S 24°06' W 046°11'0 0.0
2014-Sep-25 05:13S 24°06' W 046°11'0 0.0
2014-Sep-25 02:25S 24°06' W 046°11'0 0.0
2014-Sep-25 01:31S 24°06' W 046°11'0 0.1
2014-Sep-25 00:25S 24°06' W 046°11'  

Dump ship's entire track history